Fall River Mills, CA (96028)

1:32 PM PDT on September 21, 2014 (GMT -0700)
Glenburn | Change Station
CLOSE
Current Station
Personal Weather Station
Location: Fall River Mills, CA
Elevation: 3347 ft
Nearby Weather Stations

Elev 3347 ft 41.08 °N, 121.54 °W | Updated 11 seconds ago

Partly Cloudy
Partly Cloudy
81.9 °F
Feels Like 80 °F
N
2.3
Wind Variable Wind from ENE
Gusts 2.3 mph

Today
High -- | Low -- °F
--% Chance of Precip.
Yesterday
High -- | Low -- °F
Precip. -- in
6:52 AM 7:04 PM
Waning Crescent, 5% visible
Pressure 29.98 in
Visibility 10.0 miles
Clouds Clear
Heat Index 80 °F
Dew Point 47 °F
Humidity 30%
Rainfall 0.00 in
Snow Depth 0 in , 0 in , 0 in
UV 8 out of 12
Pollen 5.80 out of 12
Air Quality Not available.
Flu Activity Not available.
METAR KMHS 211956Z AUTO 00000KT 10SM CLR 26/12 A3003 RMK AO2 SLP150 T02610122

More Conditions Fewer Conditions

Pressure 29.98 in
Visibility 10.0 miles
Clouds Clear
Heat Index 80 °F
Dew Point 47 °F
Humidity 30%
Rainfall 0.00 in
Snow Depth 0 in , 0 in , 0 in
UV 8 out of 12
Pollen 5.80 out of 12
Air Quality Not available.
Flu Activity Not available.
METAR KMHS 211956Z AUTO 00000KT 10SM CLR 26/12 A3003 RMK AO2 SLP150 T02610122

More Conditions Fewer Conditions

10-Day Weather Forecast

Almanac

Astronomy

Sep. 21, 2014 Rise Set
Actual Time 6:52 AM PDT 7:04 PM PDT
Civil Twilight 6:25 AM PDT 7:32 PM PDT
Nautical Twilight 5:52 AM PDT 8:04 PM PDT
Astronomical Twilight 5:19 AM PDT 8:37 PM PDT
Moon 4:30 AM PDT 5:44 PM PDT
Length of Visible Light 13h 07m
Length of Day
12h 12m
Tomorrow will be 2m 43s shorter.
Waning Crescent, 5% of the Moon is Illuminated
Today
Waning Crescent
Sep 24
New
Oct 1
First Quarter
Oct 8
Full
Oct 15
Last Quarter

Today's Extremes

State Highs State Lows

Community

WunderPhotos

Upload Photos

1,755,245 photos uploaded!

Nearby

Snow Depth

Station Depth Elevation
Echo Peak 0 in 7800 ft
Squaw Valley 0 in 8200 ft
Spratt Creek 0 in 6200 ft
Fallen Leaf 0 in 6300 ft
Tahoe City Cross 0 in 6750 ft

Earthquake Activity

City Distance Mag. Time & Date
Lakeview, Oregon 111 miles 2.5 2:45 AM PDT
2014-09-20
Lakeview, Oregon 111 miles 2.5 10:12 PM PDT
2014-09-19
Lakeview, Oregon 111 miles 2.9 7:40 PM PDT
2014-09-19
Minimum magnitude displayed is 2.5.

Coastal Water Temperatures

Place Temperature
No Stations Reporting

Nearby Weather Stations